createdAt,value
2023-04-27T00:00:27.090Z,3.45
2023-04-27T00:03:09.982Z,4.32
2023-04-27T00:05:52.929Z,3.55
2023-04-27T00:08:37.070Z,2.65
2023-04-27T00:11:19.751Z,3.28
2023-04-27T00:14:02.319Z,5.05
2023-04-27T00:16:45.099Z,2.72
2023-04-27T00:19:28.283Z,4.13
2023-04-27T00:22:11.298Z,2.72
2023-04-27T00:24:55.276Z,4.55
2023-04-27T00:27:37.851Z,3.88
2023-04-27T00:30:20.546Z,3.10
2023-04-27T00:33:03.188Z,5.95
2023-04-27T00:35:45.839Z,4.70
2023-04-27T00:38:30.808Z,4.78
2023-04-27T00:41:15.858Z,3.33
2023-04-27T00:43:58.496Z,3.50
2023-04-27T00:46:42.375Z,4.18
2023-04-27T00:49:25.273Z,2.90
2023-04-27T00:52:07.853Z,3.22
2023-04-27T00:54:51.615Z,2.47
2023-04-27T00:57:37.480Z,2.25
2023-04-27T01:00:21.489Z,4.63
2023-04-27T01:03:04.559Z,4.20
2023-04-27T01:05:47.232Z,2.67
2023-04-27T01:08:30.177Z,2.65
2023-04-27T01:11:12.780Z,3.47
2023-04-27T01:13:57.040Z,3.90
2023-04-27T01:16:40.566Z,3.70
2023-04-27T01:19:25.356Z,3.40
2023-04-27T01:22:08.242Z,4.60
2023-04-27T01:24:52.238Z,3.75
2023-04-27T01:27:34.890Z,3.92
2023-04-27T01:30:19.513Z,4.32
2023-04-27T01:33:02.179Z,5.57
2023-04-27T01:35:44.851Z,6.28
2023-04-27T01:38:27.472Z,5.82
2023-04-27T01:41:11.419Z,2.67
2023-04-27T01:43:54.026Z,2.50
2023-04-27T01:46:37.591Z,2.42
2023-04-27T01:49:20.298Z,3.40
2023-04-27T01:52:02.916Z,4.93
2023-04-27T01:54:45.570Z,3.50
2023-04-27T01:57:29.534Z,2.67
2023-04-27T02:00:12.775Z,2.85
2023-04-27T02:03:04.483Z,3.92
2023-04-27T02:05:47.938Z,3.28
2023-04-27T02:08:30.583Z,4.60
2023-04-27T02:11:13.229Z,3.85
2023-04-27T02:13:57.193Z,4.20
2023-04-27T02:16:46.482Z,3.25
2023-04-27T02:19:29.086Z,3.92
2023-04-27T02:22:12.327Z,5.65
2023-04-27T02:24:54.926Z,2.50
2023-04-27T02:27:38.116Z,4.13
2023-04-27T02:30:22.590Z,3.60
2023-04-27T02:33:06.044Z,4.15
2023-04-27T02:35:48.664Z,5.35
2023-04-27T02:38:31.341Z,2.95
2023-04-27T02:41:13.989Z,2.88
2023-04-27T02:43:56.579Z,3.90
2023-04-27T02:46:41.507Z,2.63
2023-04-27T02:49:24.136Z,4.10
2023-04-27T02:52:07.036Z,2.58
2023-04-27T02:54:49.693Z,2.97
2023-04-27T02:57:32.366Z,4.80
2023-04-27T03:00:16.005Z,3.20
2023-04-27T03:03:00.084Z,3.05
2023-04-27T03:05:42.807Z,4.03
2023-04-27T03:08:25.403Z,2.97
2023-04-27T03:11:09.250Z,4.13
2023-04-27T03:13:52.180Z,3.45
2023-04-27T03:16:34.862Z,4.43
2023-04-27T03:19:18.922Z,3.20
2023-04-27T03:22:02.084Z,3.90
2023-04-27T03:24:45.091Z,3.75
2023-04-27T03:27:27.664Z,3.45
2023-04-27T03:30:10.835Z,2.75
2023-04-27T03:32:53.940Z,4.65
2023-04-27T03:35:37.948Z,2.65
2023-04-27T03:38:20.591Z,5.28
2023-04-27T03:41:03.310Z,3.20
2023-04-27T03:43:45.924Z,2.75
2023-04-27T03:46:28.652Z,3.53
2023-04-27T03:49:11.467Z,3.20
2023-04-27T03:51:55.586Z,2.40
2023-04-27T03:54:38.180Z,4.53
2023-04-27T03:57:20.896Z,3.60
2023-04-27T04:00:06.957Z,5.15
2023-04-27T04:02:55.424Z,3.10
2023-04-27T04:05:38.423Z,2.72
2023-04-27T04:08:22.397Z,2.88
2023-04-27T04:11:05.091Z,5.28
2023-04-27T04:13:47.711Z,3.35
2023-04-27T04:16:30.574Z,2.08
2023-04-27T04:19:13.685Z,4.38
2023-04-27T04:21:57.833Z,3.05
2023-04-27T04:24:41.902Z,4.03
2023-04-27T04:27:25.631Z,3.28
2023-04-27T04:30:08.784Z,2.85
2023-04-27T04:32:52.863Z,3.35
2023-04-27T04:35:35.693Z,3.35
2023-04-27T04:38:18.689Z,3.03
2023-04-27T04:41:02.775Z,3.25
2023-04-27T04:43:49.456Z,3.00
2023-04-27T04:46:34.582Z,3.33
2023-04-27T04:49:17.181Z,5.13
2023-04-27T04:51:59.766Z,3.83
2023-04-27T04:54:42.401Z,3.15
2023-04-27T04:57:26.410Z,2.78
2023-04-27T05:00:12.018Z,2.75
2023-04-27T05:02:54.845Z,5.78
2023-04-27T05:05:37.851Z,2.75
2023-04-27T05:08:20.431Z,3.83
2023-04-27T05:11:03.083Z,4.97
2023-04-27T05:13:47.895Z,3.08
2023-04-27T05:16:30.643Z,4.70
2023-04-27T05:19:18.119Z,4.55
2023-04-27T05:22:00.707Z,4.15
2023-04-27T05:24:43.272Z,2.20
2023-04-27T05:27:25.914Z,3.63
2023-04-27T05:30:11.050Z,2.85
2023-04-27T05:32:53.797Z,4.63
2023-04-27T05:35:36.449Z,5.75
2023-04-27T05:38:19.112Z,4.53
2023-04-27T05:41:01.751Z,4.28
2023-04-27T05:43:44.416Z,6.05
2023-04-27T05:46:28.476Z,3.88
2023-04-27T05:49:11.192Z,5.93
2023-04-27T05:51:53.964Z,3.53
2023-04-27T05:54:36.573Z,4.00
2023-04-27T05:57:19.170Z,4.45
2023-04-27T06:00:01.794Z,4.03
2023-04-27T06:02:56.238Z,3.95
2023-04-27T06:05:38.994Z,3.38
2023-04-27T06:08:22.090Z,3.80
2023-04-27T06:11:05.140Z,4.03
2023-04-27T06:13:47.867Z,2.67
2023-04-27T06:16:30.477Z,4.97
2023-04-27T06:19:14.681Z,5.50
2023-04-27T06:21:57.524Z,3.30
2023-04-27T06:24:40.184Z,5.85
2023-04-27T06:27:22.817Z,2.28
2023-04-27T06:30:06.329Z,4.93
2023-04-27T06:32:49.120Z,4.60
2023-04-27T06:35:33.098Z,3.50
2023-04-27T06:38:15.728Z,4.40
2023-04-27T06:40:59.170Z,2.63
2023-04-27T06:43:41.799Z,4.25
2023-04-27T06:46:24.404Z,2.83
2023-04-27T06:49:07.388Z,3.78
2023-04-27T06:51:51.605Z,4.55
2023-04-27T06:54:34.271Z,3.47
2023-04-27T06:57:16.907Z,3.35
2023-04-27T06:59:59.551Z,2.05
2023-04-27T07:02:42.209Z,3.72
2023-04-27T07:05:24.936Z,2.17
2023-04-27T07:08:09.279Z,2.95
2023-04-27T07:10:52.097Z,2.50
2023-04-27T07:13:34.759Z,2.60
2023-04-27T07:16:17.501Z,4.25
2023-04-27T07:19:00.156Z,4.78
2023-04-27T07:21:42.787Z,4.10
2023-04-27T07:24:26.823Z,3.25
2023-04-27T07:27:10.207Z,4.57
2023-04-27T07:29:53.446Z,3.30
2023-04-27T07:32:36.579Z,2.72
2023-04-27T07:35:19.234Z,3.40
2023-04-27T07:38:02.723Z,1.80
2023-04-27T07:40:46.681Z,1.90
2023-04-27T07:43:29.610Z,2.65
2023-04-27T07:46:12.348Z,2.65
2023-04-27T07:48:55.230Z,2.50
2023-04-27T07:51:38.101Z,3.47
2023-04-27T07:54:20.734Z,3.53
2023-04-27T07:57:08.504Z,2.58
2023-04-27T07:59:51.194Z,2.58
2023-04-27T08:02:34.869Z,2.17
2023-04-27T08:05:18.603Z,3.25
2023-04-27T08:10:44.350Z,4.40
2023-04-27T08:13:28.305Z,3.13
2023-04-27T08:16:11.137Z,3.17
2023-04-27T08:18:53.819Z,2.72
2023-04-27T08:21:36.848Z,3.72
2023-04-27T08:24:20.785Z,1.67
2023-04-27T08:27:04.373Z,0.95
2023-04-27T08:29:48.767Z,2.90
2023-04-27T08:32:31.404Z,2.55
2023-04-27T08:35:14.773Z,2.00
2023-04-27T08:37:57.434Z,2.25
2023-04-27T08:40:43.332Z,3.67
2023-04-27T08:43:26.029Z,4.18
2023-04-27T08:46:10.019Z,2.88
2023-04-27T08:48:53.400Z,2.35
2023-04-27T08:51:36.141Z,4.45
2023-04-27T08:54:20.516Z,3.30
2023-04-27T08:57:03.138Z,2.83
2023-04-27T08:59:45.724Z,3.65
2023-04-27T09:02:30.191Z,4.60
2023-04-27T09:05:19.301Z,2.25
2023-04-27T09:08:05.121Z,1.80
2023-04-27T09:10:48.955Z,5.13
2023-04-27T09:13:36.148Z,2.20
2023-04-27T09:16:24.146Z,3.10
2023-04-27T09:19:08.303Z,3.75
2023-04-27T09:21:51.693Z,1.23
2023-04-27T09:24:34.646Z,1.13
2023-04-27T09:27:20.434Z,2.22
2023-04-27T09:30:13.175Z,2.10
2023-04-27T09:32:56.770Z,4.05
2023-04-27T09:35:42.978Z,2.17
2023-04-27T09:38:25.883Z,2.05
2023-04-27T09:41:08.986Z,2.55
2023-04-27T09:43:51.635Z,1.45
2023-04-27T09:46:34.446Z,2.75
2023-04-27T09:49:17.280Z,2.35
2023-04-27T09:52:01.281Z,3.22
2023-04-27T09:54:43.961Z,2.80
2023-04-27T09:57:33.143Z,2.08
2023-04-27T10:00:21.622Z,2.63
2023-04-27T10:03:16.562Z,1.58
2023-04-27T10:06:29.052Z,3.65
2023-04-27T10:09:13.517Z,1.33
2023-04-27T10:11:56.363Z,2.45
2023-04-27T10:14:48.741Z,1.60
2023-04-27T10:17:32.507Z,3.25
2023-04-27T10:20:15.157Z,1.92
2023-04-27T10:22:58.125Z,3.00
2023-04-27T10:25:42.696Z,2.50
2023-04-27T10:28:25.361Z,1.83
2023-04-27T10:31:11.089Z,2.92
2023-04-27T10:33:53.858Z,3.42
2023-04-27T10:36:37.739Z,2.30
2023-04-27T10:39:29.932Z,2.65
2023-04-27T10:42:29.425Z,3.20
2023-04-27T10:45:12.911Z,3.17
2023-04-27T10:47:59.294Z,2.03
2023-04-27T10:50:42.536Z,2.83
2023-04-27T10:53:25.233Z,1.77
2023-04-27T10:56:08.087Z,3.33
2023-04-27T10:58:52.028Z,2.33
2023-04-27T11:01:35.090Z,1.98
2023-04-27T11:04:18.521Z,1.38
2023-04-27T11:07:01.623Z,1.88
2023-04-27T11:09:44.276Z,4.50
2023-04-27T11:12:27.160Z,2.35
2023-04-27T11:15:11.663Z,3.10
2023-04-27T11:18:05.128Z,2.47
2023-04-27T11:20:49.393Z,5.25
2023-04-27T11:23:36.975Z,3.30
2023-04-27T11:26:21.272Z,1.73
2023-04-27T11:29:05.399Z,2.20
2023-04-27T11:31:51.258Z,4.25
2023-04-27T11:34:37.352Z,2.40
2023-04-27T11:37:23.863Z,1.58
2023-04-27T11:40:08.509Z,3.38
2023-04-27T11:42:58.129Z,3.55
2023-04-27T11:45:43.071Z,2.55
2023-04-27T11:48:28.291Z,4.72
2023-04-27T11:51:11.980Z,2.13
2023-04-27T11:53:54.594Z,2.92
2023-04-27T11:56:37.692Z,2.15
2023-04-27T11:59:21.158Z,3.15
2023-04-27T12:02:04.023Z,2.03
2023-04-27T12:04:48.603Z,3.03
2023-04-27T12:07:31.513Z,1.98
2023-04-27T12:10:14.318Z,3.03
2023-04-27T12:12:57.028Z,3.15
2023-04-27T12:15:39.742Z,2.33
2023-04-27T12:18:22.383Z,2.65
2023-04-27T12:21:08.494Z,5.65
2023-04-27T12:23:51.649Z,4.43
2023-04-27T12:26:34.291Z,1.95
2023-04-27T12:29:17.155Z,2.80
2023-04-27T12:31:59.856Z,3.45
2023-04-27T12:34:42.899Z,2.08
2023-04-27T12:37:27.194Z,2.78
2023-04-27T12:40:10.637Z,3.10
2023-04-27T12:42:54.659Z,2.25
2023-04-27T12:45:37.313Z,2.63
2023-04-27T12:48:20.139Z,3.40
2023-04-27T12:51:03.801Z,2.45
2023-04-27T12:53:48.219Z,3.22
2023-04-27T12:56:31.393Z,1.80
2023-04-27T12:59:13.992Z,4.47
2023-04-27T13:01:56.971Z,2.08
2023-04-27T13:04:39.746Z,2.78
2023-04-27T13:07:22.524Z,3.40
2023-04-27T13:10:06.995Z,2.95
2023-04-27T13:12:49.655Z,3.88
2023-04-27T13:15:32.402Z,2.67
2023-04-27T13:18:15.229Z,4.18
2023-04-27T13:20:58.146Z,6.43
2023-04-27T13:23:40.766Z,3.28
2023-04-27T13:26:25.153Z,2.53
2023-04-27T13:29:07.777Z,2.22
2023-04-27T13:31:50.632Z,3.95
2023-04-27T13:34:33.326Z,3.20
2023-04-27T13:37:16.567Z,4.47
2023-04-27T13:39:59.279Z,2.33
2023-04-27T13:42:43.464Z,2.75
2023-04-27T13:45:26.821Z,3.25
2023-04-27T13:48:09.477Z,3.80
2023-04-27T13:50:52.225Z,3.70
2023-04-27T13:53:34.843Z,6.03
2023-04-27T13:56:17.508Z,2.33
2023-04-27T13:59:01.494Z,6.18
2023-04-27T14:01:44.170Z,2.78
2023-04-27T14:04:26.914Z,3.28
2023-04-27T14:07:09.651Z,3.17
2023-04-27T14:09:52.290Z,4.72
2023-04-27T14:12:35.841Z,4.90
2023-04-27T14:15:19.994Z,2.92
2023-04-27T14:18:02.734Z,2.58
2023-04-27T14:20:45.556Z,4.00
2023-04-27T14:23:28.192Z,3.55
2023-04-27T14:26:10.909Z,3.70
2023-04-27T14:28:58.024Z,4.47
2023-04-27T14:31:42.633Z,3.13
2023-04-27T14:34:25.536Z,5.88
2023-04-27T14:37:08.139Z,5.10
2023-04-27T14:39:50.840Z,3.10
2023-04-27T14:42:33.467Z,4.13
2023-04-27T14:45:18.787Z,2.97
2023-04-27T14:48:03.159Z,4.40
2023-04-27T14:50:45.886Z,3.53
2023-04-27T14:53:28.532Z,5.53
2023-04-27T14:56:11.144Z,3.28
2023-04-27T14:58:55.165Z,4.35
2023-04-27T15:01:37.843Z,3.63
2023-04-27T15:04:22.326Z,4.75
2023-04-27T15:07:05.318Z,4.65
2023-04-27T15:09:47.987Z,3.60
2023-04-27T15:12:30.710Z,2.88
2023-04-27T15:15:13.921Z,3.97
2023-04-27T15:17:56.713Z,4.90
2023-04-27T15:20:41.253Z,3.38
2023-04-27T15:23:25.271Z,3.45
2023-04-27T15:26:07.949Z,5.15
2023-04-27T15:28:50.688Z,3.55
2023-04-27T15:31:34.567Z,3.55
2023-04-27T15:34:17.157Z,5.45
2023-04-27T15:37:02.838Z,5.57
2023-04-27T15:39:45.505Z,4.22
2023-04-27T15:42:28.108Z,5.05
2023-04-27T15:45:11.154Z,4.20
2023-04-27T15:47:53.792Z,4.40
2023-04-27T15:50:36.534Z,4.10
2023-04-27T15:53:20.478Z,3.88
2023-04-27T15:56:03.132Z,4.25
2023-04-27T15:58:46.057Z,4.88
2023-04-27T16:01:28.737Z,7.18
2023-04-27T16:04:11.623Z,4.35
2023-04-27T16:06:54.322Z,3.42
2023-04-27T16:09:38.319Z,3.88
2023-04-27T16:12:21.530Z,5.00
2023-04-27T16:15:04.580Z,4.32
2023-04-27T16:17:47.222Z,5.85
2023-04-27T16:20:30.847Z,4.18
2023-04-27T16:23:13.449Z,5.43
2023-04-27T16:25:57.495Z,7.22
2023-04-27T16:28:40.167Z,5.40
2023-04-27T16:31:22.984Z,6.13
2023-04-27T16:34:06.277Z,4.63
2023-04-27T16:36:49.784Z,3.60
2023-04-27T16:39:32.620Z,6.07
2023-04-27T16:42:20.383Z,6.32
2023-04-27T16:45:03.321Z,4.18
2023-04-27T16:47:46.346Z,8.20
2023-04-27T16:50:31.492Z,4.28
2023-04-27T16:53:19.516Z,6.55
2023-04-27T16:56:02.412Z,3.65
2023-04-27T16:58:46.386Z,6.47
2023-04-27T17:01:30.010Z,5.32
2023-04-27T17:04:12.941Z,7.05
2023-04-27T17:06:55.845Z,4.50
2023-04-27T17:09:38.679Z,8.07
2023-04-27T17:12:21.553Z,5.65
2023-04-27T17:15:06.179Z,5.07
2023-04-27T17:17:48.825Z,3.83
2023-04-27T17:20:31.627Z,4.32
2023-04-27T17:23:14.291Z,6.10
2023-04-27T17:25:59.813Z,4.95
2023-04-27T17:28:42.519Z,5.93
2023-04-27T17:31:27.063Z,5.00
2023-04-27T17:34:09.814Z,6.68
2023-04-27T17:36:55.210Z,4.88
2023-04-27T17:39:37.828Z,5.07
2023-04-27T17:42:20.498Z,5.00
2023-04-27T17:45:03.231Z,5.50
2023-04-27T17:47:47.209Z,4.90
2023-04-27T17:50:34.824Z,4.95
2023-04-27T17:53:17.466Z,3.95
2023-04-27T17:56:00.220Z,2.95
2023-04-27T17:58:42.826Z,4.53
2023-04-27T18:01:25.721Z,5.15
2023-04-27T18:04:10.197Z,8.35
2023-04-27T18:06:52.863Z,3.90
2023-04-27T18:09:35.732Z,6.07
2023-04-27T18:12:18.356Z,3.35
2023-04-27T18:15:02.933Z,4.55
2023-04-27T18:17:47.116Z,3.42
2023-04-27T18:20:31.149Z,6.07
2023-04-27T18:23:13.774Z,6.18
2023-04-27T18:25:58.891Z,5.25
2023-04-27T18:28:41.829Z,3.05
2023-04-27T18:31:24.758Z,4.15
2023-04-27T18:34:07.470Z,5.20
2023-04-27T18:36:52.150Z,4.40
2023-04-27T18:39:34.867Z,3.83
2023-04-27T18:42:18.408Z,8.23
2023-04-27T18:45:01.857Z,7.72
2023-04-27T18:47:44.553Z,5.70
2023-04-27T18:50:27.581Z,5.22
2023-04-27T18:53:11.716Z,4.38
2023-04-27T18:55:54.478Z,3.15
2023-04-27T18:58:37.174Z,7.28
2023-04-27T19:01:21.099Z,4.15
2023-04-27T19:04:03.878Z,5.85
2023-04-27T19:06:47.497Z,4.25
2023-04-27T19:09:31.507Z,3.65
2023-04-27T19:12:14.170Z,4.93
2023-04-27T19:14:56.903Z,3.83
2023-04-27T19:17:40.145Z,3.22
2023-04-27T19:20:22.920Z,4.75
2023-04-27T19:23:07.836Z,3.95
2023-04-27T19:25:55.126Z,6.30
2023-04-27T19:28:40.093Z,3.60
2023-04-27T19:31:22.905Z,5.72
2023-04-27T19:34:05.665Z,4.50
2023-04-27T19:36:49.937Z,4.65
2023-04-27T19:39:34.278Z,5.57
2023-04-27T19:42:18.568Z,4.13
2023-04-27T19:45:01.679Z,3.60
2023-04-27T19:47:44.336Z,6.78
2023-04-27T19:50:27.177Z,3.60
2023-04-27T19:53:09.867Z,5.00
2023-04-27T19:55:52.842Z,5.00
2023-04-27T19:58:37.180Z,5.85
2023-04-27T20:01:21.927Z,4.78
2023-04-27T20:04:04.933Z,4.25
2023-04-27T20:06:47.720Z,6.15
2023-04-27T20:09:30.414Z,4.28
2023-04-27T20:12:28.888Z,3.95
2023-04-27T20:15:17.024Z,4.85
2023-04-27T20:17:59.781Z,6.18
2023-04-27T20:20:42.910Z,7.97
2023-04-27T20:23:25.771Z,6.45
2023-04-27T20:26:08.373Z,7.93
2023-04-27T20:28:51.206Z,6.13
2023-04-27T20:31:35.420Z,8.07
2023-04-27T20:34:18.210Z,5.90
2023-04-27T20:37:00.905Z,5.85
2023-04-27T20:39:43.532Z,6.88
2023-04-27T20:42:26.192Z,6.18
2023-04-27T20:45:11.376Z,5.63
2023-04-27T20:47:57.008Z,5.95
2023-04-27T20:50:42.562Z,5.40
2023-04-27T20:53:25.947Z,5.90
2023-04-27T20:56:09.040Z,6.63
2023-04-27T20:58:51.676Z,6.38
2023-04-27T21:01:34.359Z,5.68
2023-04-27T21:04:18.685Z,5.68
2023-04-27T21:07:01.703Z,5.32
2023-04-27T21:09:44.312Z,5.70
2023-04-27T21:12:27.007Z,9.05
2023-04-27T21:15:10.106Z,4.78
2023-04-27T21:17:52.825Z,6.82
2023-04-27T21:20:36.861Z,4.93
2023-04-27T21:23:19.829Z,8.60
2023-04-27T21:26:02.460Z,5.78
2023-04-27T21:28:45.109Z,7.50
2023-04-27T21:31:27.766Z,6.85
2023-04-27T21:34:10.429Z,8.82
2023-04-27T21:36:54.477Z,8.70
2023-04-27T21:39:37.202Z,7.75
2023-04-27T21:42:19.826Z,7.00
2023-04-27T21:45:03.736Z,9.18
2023-04-27T21:47:46.531Z,7.53
2023-04-27T21:50:29.160Z,6.25
2023-04-27T21:53:13.262Z,8.57
2023-04-27T21:55:57.398Z,7.40
2023-04-27T21:58:40.017Z,8.35
2023-04-27T22:01:23.603Z,6.47
2023-04-27T22:04:07.065Z,8.90
2023-04-27T22:06:49.955Z,14.10
2023-04-27T22:09:33.902Z,11.05
2023-04-27T22:12:16.517Z,15.35
2023-04-27T22:14:59.179Z,9.25
2023-04-27T22:17:42.014Z,8.05
2023-04-27T22:20:25.974Z,12.18
2023-04-27T22:23:09.261Z,12.73
2023-04-27T22:25:53.252Z,11.77
2023-04-27T22:28:35.913Z,13.80
2023-04-27T22:31:18.548Z,11.00
2023-04-27T22:34:01.185Z,8.30
2023-04-27T22:36:43.933Z,10.60
2023-04-27T22:39:26.740Z,8.98
2023-04-27T22:42:10.766Z,11.15
2023-04-27T22:44:53.353Z,11.23
2023-04-27T22:47:36.067Z,10.93
2023-04-27T22:50:18.826Z,11.20
2023-04-27T22:53:01.567Z,11.75
2023-04-27T22:55:44.172Z,11.57
2023-04-27T22:58:28.120Z,9.40
2023-04-27T23:01:10.808Z,9.65
2023-04-27T23:03:53.894Z,8.98
2023-04-27T23:06:36.545Z,8.70
2023-04-27T23:09:19.129Z,8.27
2023-04-27T23:12:01.997Z,11.05
2023-04-27T23:14:46.164Z,11.57
2023-04-27T23:17:30.922Z,11.98
2023-04-27T23:20:27.496Z,11.63
2023-04-27T23:23:11.610Z,11.38
2023-04-27T23:25:54.254Z,9.63
2023-04-27T23:28:37.256Z,10.63
2023-04-27T23:31:21.258Z,9.02
2023-04-27T23:34:03.916Z,9.05
2023-04-27T23:36:46.502Z,10.57
2023-04-27T23:39:29.376Z,8.60
2023-04-27T23:42:11.971Z,6.68
2023-04-27T23:44:54.574Z,11.93
2023-04-27T23:47:38.616Z,8.75
2023-04-27T23:50:21.229Z,11.32
2023-04-27T23:53:03.839Z,10.40
2023-04-27T23:55:46.530Z,7.00
2023-04-27T23:58:29.200Z,9.50
